首页
METAR-TAF:

METAR-TAF

机场 :

安曼, 约旦

安曼民航機場

纬度: 31-59N, 经度: 035-59E, 海拔: 767米

当前天气观测

该预报发布于28分钟前的01:00 UTC
风速18节,风向西转西南,有时为28节阵风
温度 5°C
湿度 93%
气压 1003 hPa
能見度: 4000
散云层高于2500英尺, 积雨云.
散云层高于3000英尺
阵雨

METAR: OJAM 190100Z 25018G28KT 4000 SHRA SCT025CB SCT030 05/04 Q1003 NOSIG

时间: 03:28 (01:28 UTC)

预报

该预报发布于2小时和28分钟前的23:00 UTC
预报有效从19日的 00点(UTC)到 20日的 06点(UTC)
风速20节,风向西,有时为30节阵风
散云层高于3000英尺
阴天层高于3500英尺
小阵雨
短暂存在
从 19日的 00点(UTC)到 19日的 12点(UTC)
风速25节,风向西,有时为35节阵风
少量云层高于3000英尺, 积雨云.
散云层高于3000英尺, 塔状积云.
阴天层高于3500英尺
雷暴, 雨, 冰雹, 轻雾
成为
从 19日的 12点(UTC)到 19日的 14点(UTC)
风速16节,风向西转西北
能見度: 5000
散云层高于3000英尺
多云层高于3500英尺
轻雾
短暂存在
从 19日的 12点(UTC)到 19日的 15点(UTC)
能見度: 3000
小阵雨

TAF: OJAM 182300Z 1900/2006 26020G30KT -SHRA SCT030 OVC035 TEMPO 1900/1912 27025G35KT TSRAGR BR FEW030CB SCT030TCU OVC035 BECMG 1912/1914 29016KT 5000 BR SCT030 BKN035 TEMPO 1912/1915 3000 -SHRA

超过4000个机场的气象观测和天气预报(METAR&TAF报告)。

可查询的气象台以黄色和红色小点在地图上表示。

将鼠标移到小点上方,可查看气象台名称。

然后点击查看天气观测和预报。

如需切换地图:点击带黑十字的绿色按钮放大地图;点击带横线的绿色按钮缩小地图;或者点击绿色箭头查看邻近地区的地图。


METAR-TAF: